sensor_id;sensor_type;location;lat;lon;timestamp;P1;durP1;ratioP1;P2;durP2;ratioP2
30613;SDS011;17381;51.690;5.270;2023-01-19T04:36:53;2.17;;;0.95;;
30613;SDS011;17381;51.690;5.270;2023-01-19T04:39:40;1.45;;;0.77;;
30613;SDS011;17381;51.690;5.270;2023-01-19T06:21:53;3.97;;;1.25;;
30613;SDS011;17381;51.690;5.270;2023-01-19T06:24:33;2.05;;;0.95;;
30613;SDS011;17381;51.690;5.270;2023-01-19T06:27:12;2.42;;;1.13;;
30613;SDS011;17381;51.690;5.270;2023-01-19T06:29:52;4.10;;;1.50;;
30613;SDS011;17381;51.690;5.270;2023-01-19T06:32:27;4.95;;;1.80;;
30613;SDS011;17381;51.690;5.270;2023-01-19T06:35:09;3.95;;;2.15;;
30613;SDS011;17381;51.690;5.270;2023-01-19T06:37:53;4.55;;;2.03;;
30613;SDS011;17381;51.690;5.270;2023-01-19T06:40:26;6.45;;;2.88;;
30613;SDS011;17381;51.690;5.270;2023-01-19T06:43:03;5.13;;;2.75;;
30613;SDS011;17381;51.690;5.270;2023-01-19T06:45:52;5.38;;;3.10;;
30613;SDS011;17381;51.690;5.270;2023-01-19T06:51:23;8.50;;;4.82;;
30613;SDS011;17381;51.690;5.270;2023-01-19T06:54:21;6.38;;;4.38;;
30613;SDS011;17381;51.690;5.270;2023-01-19T06:57:18;8.45;;;4.97;;
30613;SDS011;17381;51.690;5.270;2023-01-19T06:59:51;7.82;;;4.97;;
30613;SDS011;17381;51.690;5.270;2023-01-19T07:02:30;8.45;;;4.63;;
30613;SDS011;17381;51.690;5.270;2023-01-19T07:05:07;8.20;;;4.95;;
30613;SDS011;17381;51.690;5.270;2023-01-19T07:07:52;10.90;;;5.22;;
30613;SDS011;17381;51.690;5.270;2023-01-19T07:10:28;9.00;;;5.43;;
30613;SDS011;17381;51.690;5.270;2023-01-19T07:13:05;10.15;;;6.15;;
30613;SDS011;17381;51.690;5.270;2023-01-19T07:15:33;11.43;;;6.32;;
30613;SDS011;17381;51.690;5.270;2023-01-19T07:18:35;10.55;;;6.57;;
30613;SDS011;17381;51.690;5.270;2023-01-19T07:22:08;12.10;;;7.82;;
30613;SDS011;17381;51.690;5.270;2023-01-19T07:24:39;13.88;;;8.02;;
30613;SDS011;17381;51.690;5.270;2023-01-19T07:27:17;14.90;;;8.65;;
30613;SDS011;17381;51.690;5.270;2023-01-19T07:29:56;10.45;;;8.30;;
30613;SDS011;17381;51.690;5.270;2023-01-19T07:32:32;14.32;;;9.48;;
30613;SDS011;17381;51.690;5.270;2023-01-19T07:35:16;12.82;;;9.43;;
30613;SDS011;17381;51.690;5.270;2023-01-19T07:38:01;15.57;;;9.68;;
30613;SDS011;17381;51.690;5.270;2023-01-19T07:41:04;13.75;;;9.30;;
30613;SDS011;17381;51.690;5.270;2023-01-19T07:43:42;14.00;;;9.50;;
30613;SDS011;17381;51.690;5.270;2023-01-19T07:46:11;12.85;;;9.15;;
30613;SDS011;17381;51.690;5.270;2023-01-19T07:48:46;12.68;;;8.88;;
30613;SDS011;17381;51.690;5.270;2023-01-19T07:51:25;13.27;;;8.88;;
30613;SDS011;17381;51.690;5.270;2023-01-19T07:54:09;13.10;;;9.18;;
30613;SDS011;17381;51.690;5.270;2023-01-19T07:56:41;13.68;;;9.27;;
30613;SDS011;17381;51.690;5.270;2023-01-19T07:59:13;15.60;;;8.77;;
30613;SDS011;17381;51.690;5.270;2023-01-19T08:01:48;14.00;;;8.85;;
30613;SDS011;17381;51.690;5.270;2023-01-19T08:04:52;14.82;;;8.95;;
30613;SDS011;17381;51.690;5.270;2023-01-19T08:07:33;13.27;;;8.82;;
30613;SDS011;17381;51.690;5.270;2023-01-19T08:10:03;15.52;;;9.23;;
30613;SDS011;17381;51.690;5.270;2023-01-19T08:13:31;11.57;;;7.28;;
30613;SDS011;17381;51.690;5.270;2023-01-19T08:16:14;13.75;;;7.95;;
30613;SDS011;17381;51.690;5.270;2023-01-19T08:18:40;15.73;;;7.97;;
30613;SDS011;17381;51.690;5.270;2023-01-19T08:21:16;13.02;;;7.43;;
30613;SDS011;17381;51.690;5.270;2023-01-19T08:24:02;11.23;;;7.18;;
30613;SDS011;17381;51.690;5.270;2023-01-19T08:27:10;11.77;;;6.95;;
30613;SDS011;17381;51.690;5.270;2023-01-19T08:29:53;8.93;;;6.10;;
30613;SDS011;17381;51.690;5.270;2023-01-19T08:32:45;9.93;;;5.97;;
30613;SDS011;17381;51.690;5.270;2023-01-19T08:35:42;14.93;;;7.55;;
30613;SDS011;17381;51.690;5.270;2023-01-19T08:41:54;11.93;;;6.95;;
30613;SDS011;17381;51.690;5.270;2023-01-19T08:44:58;14.13;;;7.00;;
30613;SDS011;17381;51.690;5.270;2023-01-19T08:47:40;13.73;;;6.72;;
30613;SDS011;17381;51.690;5.270;2023-01-19T08:50:37;12.38;;;7.13;;
30613;SDS011;17381;51.690;5.270;2023-01-19T08:53:36;15.75;;;7.88;;
30613;SDS011;17381;51.690;5.270;2023-01-19T08:56:13;17.08;;;7.30;;
30613;SDS011;17381;51.690;5.270;2023-01-19T08:58:42;17.00;;;8.85;;
30613;SDS011;17381;51.690;5.270;2023-01-19T09:01:11;14.95;;;8.05;;
30613;SDS011;17381;51.690;5.270;2023-01-19T09:04:02;15.65;;;7.85;;
30613;SDS011;17381;51.690;5.270;2023-01-19T09:06:40;15.43;;;8.45;;
30613;SDS011;17381;51.690;5.270;2023-01-19T09:09:25;18.98;;;8.75;;
30613;SDS011;17381;51.690;5.270;2023-01-19T09:12:56;13.65;;;8.32;;
30613;SDS011;17381;51.690;5.270;2023-01-19T09:15:41;15.18;;;8.55;;
30613;SDS011;17381;51.690;5.270;2023-01-19T09:18:11;13.55;;;8.18;;
30613;SDS011;17381;51.690;5.270;2023-01-19T09:21:07;19.85;;;9.57;;
30613;SDS011;17381;51.690;5.270;2023-01-19T09:24:03;18.05;;;9.45;;
30613;SDS011;17381;51.690;5.270;2023-01-19T09:27:07;16.40;;;9.70;;
30613;SDS011;17381;51.690;5.270;2023-01-19T09:29:33;20.17;;;10.45;;
30613;SDS011;17381;51.690;5.270;2023-01-19T09:32:05;16.60;;;10.82;;
30613;SDS011;17381;51.690;5.270;2023-01-19T09:34:47;24.92;;;12.93;;
30613;SDS011;17381;51.690;5.270;2023-01-19T09:37:13;21.10;;;11.98;;
30613;SDS011;17381;51.690;5.270;2023-01-19T09:39:51;18.70;;;11.23;;
30613;SDS011;17381;51.690;5.270;2023-01-19T09:42:30;17.70;;;12.13;;
30613;SDS011;17381;51.690;5.270;2023-01-19T09:45:40;21.58;;;12.57;;
30613;SDS011;17381;51.690;5.270;2023-01-19T09:48:33;21.35;;;12.77;;
30613;SDS011;17381;51.690;5.270;2023-01-19T09:51:32;24.65;;;12.90;;
30613;SDS011;17381;51.690;5.270;2023-01-19T09:54:16;19.55;;;11.95;;
30613;SDS011;17381;51.690;5.270;2023-01-19T09:57:32;23.45;;;13.38;;
30613;SDS011;17381;51.690;5.270;2023-01-19T10:00:16;19.35;;;12.15;;
30613;SDS011;17381;51.690;5.270;2023-01-19T10:03:06;21.20;;;12.00;;
30613;SDS011;17381;51.690;5.270;2023-01-19T10:06:08;19.20;;;10.38;;
30613;SDS011;17381;51.690;5.270;2023-01-19T10:08:59;19.52;;;10.75;;
30613;SDS011;17381;51.690;5.270;2023-01-19T10:11:45;22.95;;;10.15;;
30613;SDS011;17381;51.690;5.270;2023-01-19T10:17:57;19.95;;;10.45;;
30613;SDS011;17381;51.690;5.270;2023-01-19T10:21:20;14.97;;;8.67;;
30613;SDS011;17381;51.690;5.270;2023-01-19T10:24:26;18.02;;;9.32;;
30613;SDS011;17381;51.690;5.270;2023-01-19T10:27:54;16.20;;;8.77;;
30613;SDS011;17381;51.690;5.270;2023-01-19T10:30:53;14.95;;;8.15;;
30613;SDS011;17381;51.690;5.270;2023-01-19T10:33:56;16.45;;;8.48;;
30613;SDS011;17381;51.690;5.270;2023-01-19T10:36:54;15.07;;;8.35;;
30613;SDS011;17381;51.690;5.270;2023-01-19T10:40:48;15.13;;;8.43;;
30613;SDS011;17381;51.690;5.270;2023-01-19T10:43:39;15.50;;;8.15;;
30613;SDS011;17381;51.690;5.270;2023-01-19T10:46:45;13.02;;;7.75;;
30613;SDS011;17381;51.690;5.270;2023-01-19T10:49:51;15.02;;;8.32;;
30613;SDS011;17381;51.690;5.270;2023-01-19T10:52:30;16.52;;;8.82;;
30613;SDS011;17381;51.690;5.270;2023-01-19T10:55:41;17.35;;;9.60;;
30613;SDS011;17381;51.690;5.270;2023-01-19T10:58:50;14.38;;;7.93;;
30613;SDS011;17381;51.690;5.270;2023-01-19T11:09:08;10.40;;;6.07;;
30613;SDS011;17381;51.690;5.270;2023-01-19T11:12:30;14.77;;;6.30;;
30613;SDS011;17381;51.690;5.270;2023-01-19T11:21:23;11.95;;;5.50;;
30613;SDS011;17381;51.690;5.270;2023-01-19T11:24:21;12.82;;;6.18;;
30613;SDS011;17381;51.690;5.270;2023-01-19T11:27:11;12.65;;;5.72;;
30613;SDS011;17381;51.690;5.270;2023-01-19T11:30:12;18.75;;;5.63;;
30613;SDS011;17381;51.690;5.270;2023-01-19T11:43:59;13.52;;;5.57;;
30613;SDS011;17381;51.690;5.270;2023-01-19T11:50:49;10.80;;;4.93;;
30613;SDS011;17381;51.690;5.270;2023-01-19T12:06:05;12.32;;;4.97;;
30613;SDS011;17381;51.690;5.270;2023-01-19T12:09:18;14.65;;;5.07;;
30613;SDS011;17381;51.690;5.270;2023-01-19T12:18:29;12.15;;;5.30;;
30613;SDS011;17381;51.690;5.270;2023-01-19T12:21:40;10.77;;;4.80;;
30613;SDS011;17381;51.690;5.270;2023-01-19T12:24:48;11.85;;;4.85;;
30613;SDS011;17381;51.690;5.270;2023-01-19T12:27:54;13.75;;;4.68;;
30613;SDS011;17381;51.690;5.270;2023-01-19T12:30:42;17.10;;;5.80;;
30613;SDS011;17381;51.690;5.270;2023-01-19T12:33:42;15.75;;;5.47;;
30613;SDS011;17381;51.690;5.270;2023-01-19T12:39:26;13.50;;;4.93;;
30613;SDS011;17381;51.690;5.270;2023-01-19T12:42:16;14.18;;;4.82;;
30613;SDS011;17381;51.690;5.270;2023-01-19T12:45:10;15.43;;;6.80;;
30613;SDS011;17381;51.690;5.270;2023-01-19T12:51:30;12.77;;;5.38;;
30613;SDS011;17381;51.690;5.270;2023-01-19T12:54:27;18.58;;;4.95;;
30613;SDS011;17381;51.690;5.270;2023-01-19T13:01:18;21.40;;;7.38;;
30613;SDS011;17381;51.690;5.270;2023-01-19T13:04:04;15.65;;;6.70;;
30613;SDS011;17381;51.690;5.270;2023-01-19T13:10:00;11.80;;;5.18;;
30613;SDS011;17381;51.690;5.270;2023-01-19T13:28:06;14.40;;;6.57;;
30613;SDS011;17381;51.690;5.270;2023-01-19T13:31:10;17.33;;;6.70;;
30613;SDS011;17381;51.690;5.270;2023-01-19T13:33:41;14.73;;;6.78;;
30613;SDS011;17381;51.690;5.270;2023-01-19T13:36:26;12.85;;;6.15;;
30613;SDS011;17381;51.690;5.270;2023-01-19T13:40:14;14.05;;;6.90;;
30613;SDS011;17381;51.690;5.270;2023-01-19T13:43:19;14.20;;;6.53;;
30613;SDS011;17381;51.690;5.270;2023-01-19T13:46:30;13.50;;;7.07;;
30613;SDS011;17381;51.690;5.270;2023-01-19T13:49:20;19.65;;;7.55;;
30613;SDS011;17381;51.690;5.270;2023-01-19T13:55:05;15.20;;;7.93;;
30613;SDS011;17381;51.690;5.270;2023-01-19T13:57:59;16.05;;;8.10;;
30613;SDS011;17381;51.690;5.270;2023-01-19T14:00:56;19.10;;;9.25;;
30613;SDS011;17381;51.690;5.270;2023-01-19T14:03:35;18.52;;;9.57;;
30613;SDS011;17381;51.690;5.270;2023-01-19T14:07:16;12.80;;;8.48;;
30613;SDS011;17381;51.690;5.270;2023-01-19T14:10:17;17.55;;;10.43;;
30613;SDS011;17381;51.690;5.270;2023-01-19T14:16:23;25.20;;;14.27;;
30613;SDS011;17381;51.690;5.270;2023-01-19T14:18:59;26.95;;;13.20;;
30613;SDS011;17381;51.690;5.270;2023-01-19T14:21:44;19.67;;;11.18;;
30613;SDS011;17381;51.690;5.270;2023-01-19T14:24:44;18.20;;;11.27;;
30613;SDS011;17381;51.690;5.270;2023-01-19T14:27:52;17.65;;;9.82;;
30613;SDS011;17381;51.690;5.270;2023-01-19T14:31:28;15.43;;;6.88;;
30613;SDS011;17381;51.690;5.270;2023-01-19T14:37:43;11.52;;;6.15;;
30613;SDS011;17381;51.690;5.270;2023-01-19T14:40:28;12.93;;;6.20;;
30613;SDS011;17381;51.690;5.270;2023-01-19T14:43:47;13.10;;;6.75;;
30613;SDS011;17381;51.690;5.270;2023-01-19T14:46:36;12.65;;;6.70;;
30613;SDS011;17381;51.690;5.270;2023-01-19T14:49:37;11.38;;;7.15;;
30613;SDS011;17381;51.690;5.270;2023-01-19T14:52:25;13.15;;;7.28;;
30613;SDS011;17381;51.690;5.270;2023-01-19T14:55:26;14.85;;;8.30;;
30613;SDS011;17381;51.690;5.270;2023-01-19T15:03:13;25.20;;;14.10;;
30613;SDS011;17381;51.690;5.270;2023-01-19T15:10:50;19.90;;;12.60;;
30613;SDS011;17381;51.690;5.270;2023-01-19T15:46:18;24.85;;;15.15;;
30613;SDS011;17381;51.690;5.270;2023-01-19T15:52:32;35.30;;;17.03;;
30613;SDS011;17381;51.690;5.270;2023-01-19T15:55:05;27.27;;;16.00;;
30613;SDS011;17381;51.690;5.270;2023-01-19T16:02:34;34.03;;;18.17;;
30613;SDS011;17381;51.690;5.270;2023-01-19T16:42:24;36.38;;;19.02;;
30613;SDS011;17381;51.690;5.270;2023-01-19T16:44:54;32.72;;;17.25;;
30613;SDS011;17381;51.690;5.270;2023-01-19T16:47:30;32.80;;;17.33;;
30613;SDS011;17381;51.690;5.270;2023-01-19T16:50:23;33.33;;;17.00;;
30613;SDS011;17381;51.690;5.270;2023-01-19T16:53:14;30.67;;;16.38;;
30613;SDS011;17381;51.690;5.270;2023-01-19T16:55:43;30.38;;;16.95;;
30613;SDS011;17381;51.690;5.270;2023-01-19T16:58:18;29.02;;;15.88;;
30613;SDS011;17381;51.690;5.270;2023-01-19T17:00:47;31.98;;;16.27;;
30613;SDS011;17381;51.690;5.270;2023-01-19T17:03:13;28.83;;;15.88;;
30613;SDS011;17381;51.690;5.270;2023-01-19T17:05:46;27.80;;;15.15;;
30613;SDS011;17381;51.690;5.270;2023-01-19T17:08:18;25.95;;;14.25;;
30613;SDS011;17381;51.690;5.270;2023-01-19T17:11:16;31.38;;;16.33;;
30613;SDS011;17381;51.690;5.270;2023-01-19T17:13:48;30.60;;;16.30;;
30613;SDS011;17381;51.690;5.270;2023-01-19T17:16:22;27.75;;;15.75;;
30613;SDS011;17381;51.690;5.270;2023-01-19T17:18:54;32.38;;;15.88;;
30613;SDS011;17381;51.690;5.270;2023-01-19T17:24:26;28.88;;;15.10;;
30613;SDS011;17381;51.690;5.270;2023-01-19T17:27:22;29.17;;;15.07;;
30613;SDS011;17381;51.690;5.270;2023-01-19T17:30:08;33.88;;;16.08;;
30613;SDS011;17381;51.690;5.270;2023-01-19T17:36:40;32.00;;;17.20;;
30613;SDS011;17381;51.690;5.270;2023-01-19T17:39:16;27.42;;;16.45;;
30613;SDS011;17381;51.690;5.270;2023-01-19T17:41:58;30.98;;;16.75;;
30613;SDS011;17381;51.690;5.270;2023-01-19T17:50:27;30.50;;;15.52;;
30613;SDS011;17381;51.690;5.270;2023-01-19T17:53:17;31.98;;;16.65;;
30613;SDS011;17381;51.690;5.270;2023-01-19T17:55:51;32.78;;;15.95;;
30613;SDS011;17381;51.690;5.270;2023-01-19T17:58:20;26.50;;;14.15;;
30613;SDS011;17381;51.690;5.270;2023-01-19T18:00:58;27.88;;;15.13;;
30613;SDS011;17381;51.690;5.270;2023-01-19T18:03:55;29.05;;;14.98;;
30613;SDS011;17381;51.690;5.270;2023-01-19T18:06:22;28.75;;;15.27;;
30613;SDS011;17381;51.690;5.270;2023-01-19T18:08:48;27.77;;;14.95;;
30613;SDS011;17381;51.690;5.270;2023-01-19T18:11:25;33.03;;;15.98;;
30613;SDS011;17381;51.690;5.270;2023-01-19T18:13:58;30.90;;;15.85;;
30613;SDS011;17381;51.690;5.270;2023-01-19T18:16:32;35.47;;;16.77;;
30613;SDS011;17381;51.690;5.270;2023-01-19T20:15:54;31.90;;;15.10;;
30613;SDS011;17381;51.690;5.270;2023-01-19T21:51:20;31.80;;;17.20;;
30613;SDS011;17381;51.690;5.270;2023-01-19T21:54:02;29.35;;;15.90;;
30613;SDS011;17381;51.690;5.270;2023-01-19T22:25:49;32.13;;;17.25;;
30613;SDS011;17381;51.690;5.270;2023-01-19T22:28:32;32.42;;;18.10;;
30613;SDS011;17381;51.690;5.270;2023-01-19T22:31:10;30.40;;;17.98;;
30613;SDS011;17381;51.690;5.270;2023-01-19T22:34:15;30.17;;;17.95;;
30613;SDS011;17381;51.690;5.270;2023-01-19T23:54:27;22.13;;;12.20;;
30613;SDS011;17381;51.690;5.270;2023-01-19T23:59:57;24.00;;;12.13;;
